Time;durP1;ratioP1;P1;durP2;ratioP2;P2;SDS_P1;SDS_P2;PMS_P1;PMS_P2;Temp;Humidity;BMP_temperature;BMP_pressure;BME280_temperature;BME280_humidity;BME280_pressure;Samples;Min_cycle;Max_cycle;Signal;HPM_P1;HPM_P2
2022/03/15 01:26:52;;;;;;;;;;;7.00;99.90;;;3.66;100.00;102377.97;2570549;30;138056;-40
2022/03/15 01:29:22;;;;;;;;;;;5.50;99.90;;;3.80;100.00;102409.22;2569756;30;138610;-45
2022/03/15 01:31:50;;;;;;;;;;;5.40;99.90;;;3.76;100.00;102415.88;2570585;30;138437;-40
2022/03/15 01:34:18;;;;;;;;;;;5.40;99.90;;;3.77;100.00;102400.50;2570260;30;140434;-39
2022/03/15 01:36:46;;;;;;;;;;;5.40;99.90;;;3.79;100.00;102396.69;2569867;30;137916;-40
2022/03/15 01:39:13;;;;;;;;;;;5.40;99.90;;;3.85;100.00;102392.63;2569512;30;138464;-40
2022/03/15 01:41:44;;;;;;;;;;;5.40;99.90;;;3.89;100.00;102389.53;2567144;30;136878;-39
2022/03/15 01:44:18;;;;;;;;;;;5.50;99.90;;;4.01;100.00;102397.59;2569997;30;138203;-40
2022/03/15 01:46:47;;;;;;;;;;;5.50;99.90;;;4.08;100.00;102387.97;2568951;30;136725;-41
2022/03/15 01:49:18;;;;;;;;;;;5.60;99.90;;;4.11;100.00;102385.00;2570321;30;140557;-40
2022/03/15 01:51:47;;;;;;;;;;;5.60;99.90;;;4.11;100.00;102382.31;2569564;30;137019;-40
2022/03/15 01:54:15;;;;;;;;;;;5.70;99.90;;;4.18;100.00;102377.25;2567304;30;138326;-40
2022/03/15 01:56:43;;;;;;;;;;;5.70;99.90;;;4.29;100.00;102382.56;2569708;30;137147;-40
2022/03/15 01:59:17;;;;;;;;;;;5.80;99.90;;;4.23;100.00;102371.41;2569206;30;140162;-40
2022/03/15 02:01:46;;;;;;;;;;;5.80;99.90;;;4.34;100.00;102384.88;2570075;30;138900;-40
2022/03/15 02:04:15;;;;;;;;;;;5.90;99.90;;;4.40;100.00;102376.22;2570544;30;138454;-40
2022/03/15 02:06:44;;;;;;;;;;;5.90;99.90;;;4.41;100.00;102379.81;2569578;30;138939;-40
2022/03/15 02:09:14;;;;;;;;;;;5.90;99.90;;;4.43;100.00;102385.94;2569898;30;139143;-42
2022/03/15 02:11:43;;;;;;;;;;;6.00;99.90;;;4.41;100.00;102377.09;2568378;30;139301;-41
2022/03/15 02:14:11;;;;;;;;;;;6.00;99.90;;;4.40;100.00;102381.63;2570089;30;138263;-42
2022/03/15 02:16:38;;;;;;;;;;;6.00;99.90;;;4.39;100.00;102382.63;2569089;30;136979;-42
2022/03/15 02:19:06;;;;;;;;;;;6.00;99.90;;;4.39;100.00;102376.38;2566944;30;139052;-42
2022/03/15 02:21:36;;;;;;;;;;;6.00;99.90;;;4.41;100.00;102377.09;2569497;30;137127;-42
2022/03/15 02:24:04;;;;;;;;;;;6.00;99.90;;;4.41;100.00;102372.53;2571550;30;138263;-42
2022/03/15 02:26:32;;;;;;;;;;;6.00;99.90;;;4.43;100.00;102370.53;2569815;30;136996;-42
2022/03/15 02:29:00;;;;;;;;;;;6.00;99.90;;;4.45;100.00;102362.31;2569730;30;138290;-41
2022/03/15 02:31:27;;;;;;;;;;;6.00;99.90;;;4.51;100.00;102361.78;2570315;30;137637;-42
2022/03/15 02:33:54;;;;;;;;;;;6.00;99.90;;;4.52;100.00;102359.94;2566811;30;137376;-42
2022/03/15 02:36:22;;;;;;;;;;;6.00;99.90;;;4.54;100.00;102358.81;2569463;30;137579;-42
2022/03/15 02:38:49;;;;;;;;;;;6.10;99.90;;;4.59;100.00;102353.00;2571904;30;138305;-42
2022/03/15 02:41:16;;;;;;;;;;;6.10;99.90;;;4.60;100.00;102352.84;2568675;30;137421;-42
2022/03/15 02:43:44;;;;;;;;;;;6.10;99.90;;;4.59;100.00;102351.13;2569229;30;137491;-40
2022/03/15 02:46:12;;;;;;;;;;;6.10;99.90;;;4.58;100.00;102346.72;2571324;30;136940;-41
2022/03/15 02:48:40;;;;;;;;;;;6.10;99.90;;;4.56;100.00;102343.28;2569762;30;139051;-40
2022/03/15 02:51:10;;;;;;;;;;;6.10;99.90;;;4.56;100.00;102337.06;2569740;30;138012;-41
2022/03/15 02:53:38;;;;;;;;;;;6.10;99.90;;;4.59;100.00;102334.06;2566116;30;139255;-40
2022/03/15 02:56:10;;;;;;;;;;;6.10;99.90;;;4.59;100.00;102325.97;2570321;30;137740;-40
2022/03/15 02:58:41;;;;;;;;;;;6.10;99.90;;;4.61;100.00;102330.22;2570770;30;138251;-41
2022/03/15 03:01:08;;;;;;;;;;;6.20;99.90;;;4.61;100.00;102329.38;2570020;30;137102;-40
2022/03/15 03:03:37;;;;;;;;;;;6.10;99.90;;;4.59;100.00;102325.97;2570821;30;138341;-40
2022/03/15 03:06:05;;;;;;;;;;;6.10;99.90;;;4.61;100.00;102327.53;2569969;30;137258;-40
2022/03/15 03:08:34;;;;;;;;;;;6.10;99.90;;;4.61;100.00;102316.72;2569207;30;138191;-42
2022/03/15 03:11:02;;;;;;;;;;;6.10;99.90;;;4.59;100.00;102324.09;2569439;30;136692;-42
2022/03/15 03:13:30;;;;;;;;;;;6.10;99.90;;;4.57;100.00;102312.56;2570485;30;138141;-42
2022/03/15 03:16:00;;;;;;;;;;;6.10;99.90;;;4.59;100.00;102325.97;2567270;30;137198;-42
2022/03/15 03:18:31;;;;;;;;;;;6.10;99.90;;;4.60;100.00;102330.38;2568984;30;139079;-41
2022/03/15 03:21:03;;;;;;;;;;;6.10;99.90;;;4.53;100.00;102305.72;2570219;30;137161;-40
2022/03/15 03:23:32;;;;;;;;;;;6.10;99.90;;;4.53;100.00;102310.28;2569099;30;137806;-40
2022/03/15 03:26:00;;;;;;;;;;;6.10;99.90;;;4.51;100.00;102310.41;2569073;30;136994;-39
2022/03/15 03:28:37;;;;;;;;;;;6.10;99.90;;;4.49;100.00;102292.59;2567427;30;138373;-40
2022/03/15 03:31:08;;;;;;;;;;;6.00;99.90;;;4.53;100.00;102299.47;2568370;30;137750;-40
2022/03/15 03:33:37;;;;;;;;;;;6.10;99.90;;;4.59;100.00;102302.47;2570338;30;138389;-41
2022/03/15 03:36:06;;;;;;;;;;;6.10;99.90;;;4.61;100.00;102297.78;2569996;30;137184;-40
2022/03/15 03:38:33;;;;;;;;;;;6.10;99.90;;;4.64;100.00;102296.66;2569565;30;138023;-40
2022/03/15 03:41:02;;;;;;;;;;;6.20;99.90;;;4.70;100.00;102303.38;2569352;30;137614;-39
2022/03/15 03:43:31;;;;;;;;;;;6.20;99.90;;;4.71;100.00;102311.34;2568955;30;138310;-39
2022/03/15 03:45:59;;;;;;;;;;;6.20;99.90;;;4.75;100.00;102306.53;2569002;30;137060;-41
2022/03/15 03:48:27;;;;;;;;;;;6.20;99.90;;;4.71;100.00;102308.63;2571225;30;138037;-40
2022/03/15 03:50:54;;;;;;;;;;;6.30;99.90;;;4.80;100.00;102311.53;2565970;30;137027;-40
2022/03/15 03:53:22;;;;;;;;;;;6.30;99.90;;;4.85;100.00;102311.97;2569081;30;137367;-40
2022/03/15 03:55:50;;;;;;;;;;;6.30;99.90;;;4.85;100.00;102309.25;2570115;30;137008;-40
2022/03/15 03:58:17;;;;;;;;;;;6.30;99.90;;;4.85;100.00;102315.50;2570393;30;137793;-39
2022/03/15 04:00:45;;;;;;;;;;;6.40;99.90;;;4.85;100.00;102312.81;2569738;30;137780;-39
2022/03/15 04:03:16;;;;;;;;;;;6.40;99.90;;;4.80;100.00;102306.97;2570998;30;137329;-39
2022/03/15 04:05:45;;;;;;;;;;;6.30;99.90;;;4.80;100.00;102306.97;2569376;30;138318;-39
2022/03/15 04:08:14;;;;;;;;;;;6.30;99.90;;;4.82;100.00;102304.13;2573645;30;138514;-39
2022/03/15 04:10:45;;;;;;;;;;;6.40;99.90;;;4.83;100.00;102301.28;2567498;30;137168;-40
2022/03/15 04:13:18;;;;;;;;;;;6.40;99.90;;;4.84;100.00;102300.28;2567598;30;138274;-40
2022/03/15 04:15:46;;;;;;;;;;;6.40;99.90;;;4.79;100.00;102291.72;2569431;30;137566;-40
2022/03/15 04:18:13;;;;;;;;;;;6.30;99.90;;;4.82;100.00;102296.00;2569041;30;137806;-39
2022/03/15 04:20:41;;;;;;;;;;;6.40;99.90;;;4.79;100.00;102299.00;2568466;30;137875;-40
2022/03/15 04:23:10;;;;;;;;;;;6.30;99.90;;;4.77;100.00;102303.66;2565241;30;139336;-40
2022/03/15 04:25:38;;;;;;;;;;;6.30;99.90;;;4.76;100.00;102305.53;2568637;30;137141;-41
2022/03/15 04:28:06;;;;;;;;;;;6.30;99.90;;;4.71;100.00;102300.53;2568777;30;139025;-40
2022/03/15 04:30:33;;;;;;;;;;;6.30;99.90;;;4.78;100.00;102305.41;2568749;30;137187;-40
2022/03/15 04:33:04;;;;;;;;;;;6.30;99.90;;;4.74;100.00;102291.28;2569888;30;139061;-39
2022/03/15 04:35:31;;;;;;;;;;;6.30;99.90;;;4.79;100.00;102299.84;2566650;30;137462;-39
2022/03/15 04:38:00;;;;;;;;;;;6.30;99.90;;;4.87;100.00;102296.44;2571926;30;137830;-41
2022/03/15 04:40:27;;;;;;;;;;;6.40;99.90;;;4.91;100.00;102300.59;2570038;30;137117;-39
2022/03/15 04:42:56;;;;;;;;;;;6.40;99.90;;;4.87;100.00;102291.88;2567467;30;138082;-39
2022/03/15 04:45:24;;;;;;;;;;;6.40;99.90;;;4.88;100.00;102288.19;2570448;30;137010;-39
2022/03/15 04:47:51;;;;;;;;;;;6.40;99.90;;;4.88;100.00;102281.94;2570215;30;138788;-40
2022/03/15 04:50:18;;;;;;;;;;;6.40;99.90;;;4.85;100.00;102282.22;2569154;30;136991;-40
2022/03/15 04:52:46;;;;;;;;;;;6.40;99.90;;;4.85;100.00;102282.22;2569022;30;137276;-41
2022/03/15 04:55:13;;;;;;;;;;;6.40;99.90;;;4.87;100.00;102286.47;2568030;30;137836;-39
2022/03/15 04:57:42;;;;;;;;;;;6.40;99.90;;;4.83;100.00;102282.34;2568113;30;138315;-42
2022/03/15 05:00:10;;;;;;;;;;;6.40;99.90;;;4.86;100.00;102283.94;2568179;30;137850;-41
2022/03/15 05:02:43;;;;;;;;;;;6.40;99.90;;;4.88;100.00;102277.38;2567975;30;138809;-42
2022/03/15 05:05:14;;;;;;;;;;;6.40;99.90;;;4.88;100.00;102281.94;2567724;30;136917;-42
2022/03/15 05:07:43;;;;;;;;;;;6.40;99.90;;;4.88;100.00;102279.22;2568410;30;138345;-43
2022/03/15 05:12:57;;;;;;;;;;;6.40;99.90;;;4.95;100.00;102266.00;2570279;30;138156;-41
2022/03/15 05:15:25;;;;;;;;;;;6.40;99.90;;;4.95;100.00;102255.19;2570404;30;137270;-39
2022/03/15 05:17:52;;;;;;;;;;;6.40;99.90;;;4.95;100.00;102253.31;2568579;30;139280;-40
2022/03/15 05:20:20;;;;;;;;;;;6.50;99.90;;;4.90;100.00;102244.78;2568042;30;137025;-40
2022/03/15 05:22:47;;;;;;;;;;;6.40;99.90;;;4.90;100.00;102250.19;2568246;30;138642;-39
2022/03/15 05:25:14;;;;;;;;;;;6.40;99.90;;;4.90;100.00;102250.19;2568727;30;137100;-40
2022/03/15 05:27:43;;;;;;;;;;;6.40;99.90;;;4.90;100.00;102252.91;2572259;30;138203;-39
2022/03/15 05:30:11;;;;;;;;;;;6.40;99.90;;;4.88;100.00;102260.28;2569356;30;137014;-41
2022/03/15 05:32:38;;;;;;;;;;;6.40;99.90;;;4.87;100.00;102259.44;2568679;30;139736;-40
2022/03/15 05:35:06;;;;;;;;;;;6.40;99.90;;;4.92;100.00;102256.31;2568989;30;136728;-40
2022/03/15 05:37:34;;;;;;;;;;;6.40;99.90;;;4.87;100.00;102247.78;2569849;30;138411;-40
2022/03/15 05:40:02;;;;;;;;;;;6.40;99.90;;;4.92;100.00;102240.09;2566164;30;137218;-40
2022/03/15 05:42:30;;;;;;;;;;;6.40;99.90;;;4.98;100.00;102250.34;2569137;30;139067;-40
2022/03/15 05:44:57;;;;;;;;;;;6.50;99.90;;;4.97;100.00;102254.03;2565320;30;137225;-39
2022/03/15 05:47:25;;;;;;;;;;;6.50;99.90;;;4.95;100.00;102253.31;2567892;30;137750;-39
2022/03/15 05:49:52;;;;;;;;;;;6.40;99.90;;;4.94;100.00;102243.50;2570464;30;137063;-40
2022/03/15 05:52:20;;;;;;;;;;;6.50;99.90;;;4.95;100.00;102238.97;2570094;30;138166;-40
2022/03/15 05:54:47;;;;;;;;;;;6.50;99.90;;;4.96;100.00;102246.09;2568643;30;138366;-40
2022/03/15 05:57:15;;;;;;;;;;;6.50;99.90;;;4.99;99.97;102251.22;2568866;30;139200;-40
2022/03/15 05:59:42;;;;;;;;;;;6.50;99.90;;;4.98;100.00;102244.09;2570037;30;137108;-40
2022/03/15 06:02:09;;;;;;;;;;;6.50;99.90;;;5.00;99.76;102242.09;2566972;30;139381;-40
2022/03/15 06:04:37;;;;;;;;;;;6.50;99.90;;;4.94;99.54;102238.09;2569554;30;137061;-42
2022/03/15 06:07:04;;;;;;;;;;;6.50;99.90;;;5.03;100.00;102244.50;2569646;30;137559;-39
2022/03/15 06:09:34;;;;;;;;;;;6.50;99.90;;;5.01;100.00;102241.94;2568846;30;136993;-40
2022/03/15 06:12:02;;;;;;;;;;;6.50;99.90;;;5.02;100.00;102240.09;2571047;30;137541;-44
2022/03/15 06:14:30;;;;;;;;;;;6.50;99.90;;;5.08;99.33;102235.97;2569742;30;137942;-40
2022/03/15 06:16:57;;;;;;;;;;;6.50;99.90;;;5.14;98.82;102232.72;2569912;30;139072;-42
2022/03/15 06:19:25;;;;;;;;;;;6.60;99.90;;;5.11;99.20;102238.41;2569288;30;137059;-40
2022/03/15 06:21:53;;;;;;;;;;;6.60;99.90;;;5.10;99.75;102239.41;2570422;30;138241;-40
2022/03/15 06:24:21;;;;;;;;;;;6.60;99.90;;;5.10;99.99;102244.81;2567839;30;138199;-40
2022/03/15 06:26:49;;;;;;;;;;;6.60;99.90;;;5.11;100.00;102241.09;2566767;30;138805;-40
2022/03/15 06:29:16;;;;;;;;;;;6.60;99.90;;;5.15;100.00;102231.72;2570805;30;137257;-40
2022/03/15 06:31:44;;;;;;;;;;;6.60;99.90;;;5.30;98.47;102233.00;2571223;30;138279;-40
2022/03/15 06:34:17;;;;;;;;;;;6.70;99.90;;;5.43;97.46;102229.13;2570043;30;137317;-40
2022/03/15 06:36:44;;;;;;;;;;;6.80;99.90;;;5.50;97.18;102237.53;2568645;30;138373;-41
2022/03/15 06:39:12;;;;;;;;;;;6.90;99.90;;;5.50;97.31;102232.97;2569521;30;138106;-40
2022/03/15 06:41:40;;;;;;;;;;;6.90;99.90;;;5.61;96.20;102227.41;2567033;30;139082;-39
2022/03/15 06:44:08;;;;;;;;;;;7.00;99.90;;;5.63;96.35;102227.25;2570451;30;137183;-42
2022/03/15 06:46:35;;;;;;;;;;;7.00;99.90;;;5.61;96.52;102226.53;2568839;30;138681;-40
2022/03/15 06:49:04;;;;;;;;;;;7.00;99.90;;;5.63;96.29;102229.13;2570576;30;136853;-40
2022/03/15 06:51:31;;;;;;;;;;;7.10;99.90;;;5.72;96.32;102228.22;2569075;30;138253;-41
2022/03/15 06:53:59;;;;;;;;;;;7.10;99.90;;;5.75;95.86;102219.81;2569262;30;137766;-40
2022/03/15 06:56:26;;;;;;;;;;;7.20;99.90;;;5.78;95.86;102230.34;2568883;30;137179;-40
2022/03/15 06:58:54;;;;;;;;;;;7.20;99.90;;;5.78;96.54;102224.09;2569948;30;136825;-40
2022/03/15 07:01:22;;;;;;;;;;;7.20;99.90;;;5.82;95.82;102223.63;2568977;30;137347;-40
2022/03/15 07:03:50;;;;;;;;;;;7.20;99.90;;;5.86;95.44;102222.38;2569123;30;137575;-40
2022/03/15 07:06:18;;;;;;;;;;;7.30;99.90;;;5.94;95.44;102220.75;2569004;30;138182;-40
2022/03/15 07:08:45;;;;;;;;;;;7.30;99.90;;;5.99;94.68;102226.59;2569490;30;136835;-40
2022/03/15 07:11:13;;;;;;;;;;;7.40;99.90;;;6.01;94.29;102219.19;2570728;30;138125;-41
2022/03/15 07:13:40;;;;;;;;;;;7.40;99.90;;;6.08;94.45;102222.19;2570321;30;136989;-39
2022/03/15 07:16:08;;;;;;;;;;;7.50;99.90;;;6.12;94.72;102226.28;2569282;30;137940;-40
2022/03/15 07:18:35;;;;;;;;;;;7.50;99.90;;;6.18;94.91;102212.13;2568479;30;137195;-40
2022/03/15 07:21:02;;;;;;;;;;;7.60;99.90;;;6.26;95.16;102206.84;2568913;30;139162;-40
2022/03/15 07:23:30;;;;;;;;;;;7.60;99.90;;;6.37;93.27;102208.50;2569088;30;137087;-41
2022/03/15 07:25:57;;;;;;;;;;;7.70;99.90;;;6.27;93.03;102194.13;2572567;30;137465;-41
2022/03/15 07:28:25;;;;;;;;;;;7.70;99.90;;;6.43;92.19;102207.03;2569826;30;136854;-41
2022/03/15 07:30:52;;;;;;;;;;;7.80;99.90;;;6.45;92.46;102205.00;2567876;30;137537;-41
2022/03/15 07:33:21;;;;;;;;;;;7.80;99.90;;;6.50;92.43;102200.03;2568304;30;136715;-42
2022/03/15 07:35:49;;;;;;;;;;;7.90;99.90;;;6.61;91.30;102198.91;2568523;30;138286;-41
2022/03/15 07:38:17;;;;;;;;;;;7.90;99.90;;;6.66;91.14;102196.63;2569040;30;137459;-41
2022/03/15 07:40:45;;;;;;;;;;;8.00;99.90;;;6.74;90.55;102199.41;2568475;30;138516;-41
2022/03/15 07:43:13;;;;;;;;;;;8.10;99.90;;;6.79;89.48;102185.41;2567866;30;137061;-41
2022/03/15 07:45:40;;;;;;;;;;;8.20;99.90;;;6.89;90.00;102193.44;2567898;30;137594;-41
2022/03/15 07:48:10;;;;;;;;;;;8.20;99.90;;;6.92;89.78;102182.31;2566192;30;137948;-41
2022/03/15 07:50:38;;;;;;;;;;;8.30;99.90;;;7.02;89.27;102183.06;2567660;30;137734;-41
2022/03/15 07:53:05;;;;;;;;;;;8.30;99.90;;;7.02;89.36;102174.06;2568768;30;137045;-41
2022/03/15 07:55:34;;;;;;;;;;;8.40;99.90;;;7.05;90.14;102174.63;2568657;30;138551;-41
2022/03/15 07:58:02;;;;;;;;;;;8.40;99.90;;;7.08;89.51;102170.75;2568139;30;136614;-41
2022/03/15 08:00:31;;;;;;;;;;;8.40;99.90;;;7.13;89.00;102178.41;2566779;30;138235;-41
2022/03/15 08:02:58;;;;;;;;;;;8.50;99.90;;;7.17;88.69;102177.94;2567575;30;136991;-41
2022/03/15 08:05:28;;;;;;;;;;;8.50;99.90;;;7.26;88.59;102168.00;2566873;30;138482;-41
2022/03/15 08:07:56;;;;;;;;;;;8.60;99.90;;;7.35;88.33;102158.06;2568802;30;137183;-41
2022/03/15 08:10:23;;;;;;;;;;;8.70;99.90;;;7.44;87.14;102161.69;2567748;30;137537;-41
2022/03/15 08:12:51;;;;;;;;;;;8.70;99.90;;;7.43;87.92;102158.13;2568235;30;137090;-42
2022/03/15 08:15:18;;;;;;;;;;;8.70;99.90;;;7.47;86.97;102158.66;2567710;30;139339;-41
2022/03/15 08:17:45;;;;;;;;;;;8.80;99.90;;;7.52;87.23;102156.31;2569188;30;137204;-41
2022/03/15 08:20:16;;;;;;;;;;;8.80;99.90;;;7.54;86.22;102153.44;2567233;30;139103;-41
2022/03/15 08:22:44;;;;;;;;;;;8.90;99.90;;;7.66;86.39;102159.44;2566921;30;137706;-41
2022/03/15 08:25:12;;;;;;;;;;;8.90;99.90;;;7.69;85.66;102164.56;2568265;30;137408;-41
2022/03/15 08:27:40;;;;;;;;;;;9.00;99.90;;;7.72;87.05;102156.94;2568402;30;136694;-41
2022/03/15 08:30:09;;;;;;;;;;;9.00;99.90;;;7.77;87.20;102157.31;2567009;30;138119;-41
2022/03/15 08:32:36;;;;;;;;;;;9.00;99.90;;;7.82;86.47;102147.81;2568144;30;137101;-41
2022/03/15 08:35:04;;;;;;;;;;;9.10;99.90;;;7.88;87.07;102148.03;2568049;30;138811;-41
2022/03/15 08:37:31;;;;;;;;;;;9.20;99.90;;;7.90;86.10;102146.00;2567224;30;136641;-41
2022/03/15 08:39:59;;;;;;;;;;;9.20;99.90;;;7.94;85.63;102148.38;2568865;30;138203;-41
2022/03/15 08:42:26;;;;;;;;;;;9.20;99.90;;;8.05;84.43;102142.69;2568127;30;137934;-41
2022/03/15 08:44:54;;;;;;;;;;;9.30;99.90;;;8.09;84.88;102146.75;2568223;30;138158;-41
2022/03/15 08:47:21;;;;;;;;;;;9.40;99.90;;;8.25;81.58;102147.84;2567396;30;137099;-41
2022/03/15 08:49:49;;;;;;;;;;;9.50;99.90;;;8.28;82.77;102145.63;2568077;30;138247;-41
2022/03/15 08:52:16;;;;;;;;;;;9.50;99.90;;;8.21;82.92;102133.72;2568193;30;137766;-41
2022/03/15 08:54:43;;;;;;;;;;;9.60;99.90;;;8.21;82.82;102137.28;2566320;30;139363;-41
2022/03/15 08:57:11;;;;;;;;;;;9.60;99.90;;;8.23;83.44;102142.56;2567791;30;138092;-41
2022/03/15 08:59:38;;;;;;;;;;;9.50;99.90;;;8.21;83.76;102144.59;2569414;30;138410;-41
2022/03/15 09:02:08;;;;;;;;;;;9.50;99.90;;;8.20;84.35;102137.47;2566089;30;137461;-41
2022/03/15 09:04:36;;;;;;;;;;;9.50;99.90;;;8.18;83.02;102143.06;2567620;30;138160;-41
2022/03/15 09:07:04;;;;;;;;;;;9.50;99.90;;;8.17;81.92;102140.53;2568335;30;136999;-41
2022/03/15 09:09:31;;;;;;;;;;;9.50;99.90;;;8.13;82.79;102142.69;2567917;30;137092;-41
2022/03/15 09:11:59;;;;;;;;;;;9.50;99.90;;;8.11;82.81;102142.03;2567620;30;137787;-41
2022/03/15 09:14:26;;;;;;;;;;;9.40;99.90;;;8.14;83.88;102140.84;2566227;30;137602;-41
2022/03/15 09:16:54;;;;;;;;;;;9.50;99.90;;;8.13;83.85;102134.53;2567056;30;138117;-41
2022/03/15 09:19:21;;;;;;;;;;;9.50;99.90;;;8.13;83.85;102126.38;2567721;30;138941;-43
2022/03/15 09:21:50;;;;;;;;;;;9.50;99.90;;;8.23;84.15;102139.84;2567502;30;138132;-42
2022/03/15 09:24:17;;;;;;;;;;;9.50;99.90;;;8.24;84.44;102136.13;2568823;30;137370;-41
2022/03/15 09:26:46;;;;;;;;;;;9.50;99.90;;;8.33;84.16;102126.13;2567829;30;137250;-41
2022/03/15 09:29:13;;;;;;;;;;;9.60;99.90;;;8.31;84.16;102114.56;2567193;30;138648;-41
2022/03/15 09:31:41;;;;;;;;;;;9.60;99.90;;;8.47;84.45;102127.34;2568610;30;137230;-41
2022/03/15 09:34:08;;;;;;;;;;;9.70;99.90;;;8.54;83.90;102131.13;2566738;30;139066;-41
2022/03/15 09:36:36;;;;;;;;;;;9.80;99.90;;;8.54;82.11;102125.69;2569088;30;136704;-41
2022/03/15 09:39:09;;;;;;;;;;;9.80;99.90;;;8.59;82.97;102123.31;2567936;30;139065;-41
2022/03/15 09:41:38;;;;;;;;;;;9.80;99.90;;;8.59;83.09;102120.59;2566807;30;137466;-41
2022/03/15 09:44:09;;;;;;;;;;;9.80;99.90;;;8.60;82.79;102119.56;2569312;30;138332;-42
2022/03/15 09:46:41;;;;;;;;;;;9.80;99.90;;;8.70;83.66;102113.97;2569068;30;137288;-41
2022/03/15 09:49:24;;;;;;;;;;;10.00;99.90;;;8.69;82.68;102106.84;2569546;30;137409;-42
2022/03/15 09:51:55;;;;;;;;;;;10.00;99.90;;;8.75;83.22;102105.31;2567844;30;136868;-41
2022/03/15 09:54:25;;;;;;;;;;;10.00;99.90;;;8.74;82.53;102112.59;2569117;30;139224;-41
2022/03/15 09:56:54;;;;;;;;;;;10.00;99.90;;;8.76;83.21;102107.88;2569299;30;137144;-41
2022/03/15 09:59:23;;;;;;;;;;;10.00;99.90;;;8.82;86.14;102100.88;2568027;30;138235;-41
2022/03/15 10:01:52;;;;;;;;;;;10.00;99.90;;;8.88;87.81;102102.09;2566416;30;138140;-41
2022/03/15 10:04:22;;;;;;;;;;;10.10;99.90;;;8.91;88.58;102093.56;2567598;30;137621;-41
2022/03/15 10:06:51;;;;;;;;;;;10.10;99.90;;;8.99;85.59;102095.44;2569763;30;136878;-41
2022/03/15 10:09:21;;;;;;;;;;;10.20;99.90;;;9.00;87.97;102097.16;2568371;30;138229;-41
2022/03/15 10:11:50;;;;;;;;;;;10.20;99.90;;;9.00;89.22;102097.97;2565499;30;137038;-41
2022/03/15 10:14:19;;;;;;;;;;;10.30;99.90;;;8.99;90.08;102095.44;2569354;30;138313;-41
2022/03/15 10:16:49;;;;;;;;;;;10.20;99.90;;;9.00;91.52;102095.25;2568168;30;138028;-41
2022/03/15 10:19:16;;;;;;;;;;;10.20;99.90;;;9.02;91.93;102089.66;2567743;30;138934;-41
2022/03/15 10:21:48;;;;;;;;;;;10.20;99.90;;;9.00;90.56;102087.09;2568977;30;137393;-41
2022/03/15 10:24:25;;;;;;;;;;;10.30;99.90;;;9.01;90.47;102086.06;2568330;30;138355;-41
2022/03/15 10:26:55;;;;;;;;;;;10.20;99.90;;;9.06;90.55;102075.53;2569609;30;137054;-41
2022/03/15 10:29:25;;;;;;;;;;;10.30;99.90;;;9.11;90.86;102076.91;2568616;30;137909;-41
2022/03/15 10:31:53;;;;;;;;;;;10.30;99.90;;;9.17;91.14;102078.94;2567545;30;137979;-41
2022/03/15 10:34:22;;;;;;;;;;;10.40;99.90;;;9.20;89.98;102079.44;2565953;30;139540;-41
2022/03/15 10:36:53;;;;;;;;;;;10.40;99.90;;;9.26;89.72;102080.59;2566667;30;137257;-41
2022/03/15 10:39:20;;;;;;;;;;;10.40;99.90;;;9.32;90.97;102084.50;2569399;30;138171;-41
2022/03/15 10:42:00;;;;;;;;;;;10.50;99.90;;;9.38;91.95;102075.66;2567911;30;137185;-41
2022/03/15 10:44:37;;;;;;;;;;;10.60;99.90;;;9.41;89.26;102066.28;2568381;30;138399;-41
2022/03/15 10:47:09;;;;;;;;;;;10.60;99.90;;;9.42;89.29;102073.44;2568282;30;137866;-41
2022/03/15 10:49:48;;;;;;;;;;;10.60;99.90;;;9.49;88.85;102066.25;2568325;30;136849;-41
2022/03/15 10:52:41;;;;;;;;;;;10.70;99.90;;;9.51;89.51;102064.19;2569418;30;136983;-41
2022/03/15 10:55:14;;;;;;;;;;;10.70;99.90;;;9.62;87.39;102055.66;2568385;30;138475;-42
2022/03/15 10:58:00;;;;;;;;;;;10.80;99.90;;;9.63;88.58;102065.53;2568222;30;137784;-41
2022/03/15 11:00:36;;;;;;;;;;;10.80;99.90;;;9.63;88.08;102051.03;2567375;30;138926;-41
2022/03/15 11:03:13;;;;;;;;;;;10.80;99.90;;;9.66;89.10;102050.69;2569375;30;137044;-42
2022/03/15 11:05:41;;;;;;;;;;;10.80;99.90;;;9.67;89.36;102051.56;2565842;30;138297;-41
2022/03/15 11:08:12;;;;;;;;;;;10.90;99.90;;;9.67;85.65;102055.13;2566325;30;137715;-41
2022/03/15 11:10:41;;;;;;;;;;;10.90;99.90;;;9.71;86.13;102050.16;2568893;30;139105;-41
2022/03/15 11:13:11;;;;;;;;;;;10.90;99.90;;;9.82;86.69;102044.34;2567707;30;136991;-41
2022/03/15 11:15:53;;;;;;;;;;;11.00;99.90;;;9.88;87.39;102037.31;2567843;30;140056;-41
2022/03/15 11:18:21;;;;;;;;;;;11.00;99.90;;;9.91;86.67;102043.28;2569095;30;137728;-41
2022/03/15 11:20:51;;;;;;;;;;;11.10;99.90;;;9.87;85.25;102036.47;2566565;30;138134;-41
2022/03/15 11:23:23;;;;;;;;;;;11.10;99.90;;;9.94;85.94;102028.41;2568240;30;136855;-41
2022/03/15 11:26:04;;;;;;;;;;;11.10;99.90;;;9.89;83.82;102020.78;2570802;30;136935;-41
2022/03/15 11:28:34;;;;;;;;;;;11.10;99.90;;;9.96;84.00;102033.69;2567001;30;136914;-41
2022/03/15 11:31:01;;;;;;;;;;;11.20;99.90;;;9.99;84.10;102026.03;2567839;30;138447;-41
2022/03/15 11:33:30;;;;;;;;;;;11.20;99.90;;;10.04;84.34;102022.75;2568034;30;137728;-41
2022/03/15 11:36:02;;;;;;;;;;;11.20;99.90;;;10.11;83.67;102014.69;2566809;30;138763;-41
2022/03/15 11:38:30;;;;;;;;;;;11.30;99.90;;;10.14;85.61;102011.59;2568533;30;137225;-41
2022/03/15 11:40:57;;;;;;;;;;;11.30;99.90;;;10.21;87.46;102010.72;2568311;30;138228;-41
2022/03/15 11:43:50;;;;;;;;;;;11.40;99.90;;;10.26;85.89;102007.44;2569098;30;137125;-41
2022/03/15 11:46:24;;;;;;;;;;;11.40;99.90;;;10.29;86.66;102000.75;2564962;30;137867;-41
2022/03/15 11:49:20;;;;;;;;;;;11.40;99.90;;;10.28;86.13;101999.94;2569284;30;137145;-41
2022/03/15 11:52:06;;;;;;;;;;;11.40;99.90;;;10.26;84.49;102003.84;2567846;30;139280;-41
2022/03/15 11:54:47;;;;;;;;;;;11.50;99.90;;;10.27;83.37;102000.97;2568278;30;136996;-41
2022/03/15 11:57:21;;;;;;;;;;;11.50;99.90;;;10.28;85.18;101993.59;2568702;30;136849;-41
2022/03/15 11:59:51;;;;;;;;;;;11.50;99.90;;;10.28;84.99;101985.44;2568923;30;137348;-42
2022/03/15 12:02:29;;;;;;;;;;;11.50;99.90;;;10.26;84.68;101982.03;2568756;30;139171;-41
2022/03/15 12:04:58;;;;;;;;;;;11.50;99.90;;;10.25;85.94;101980.34;2568002;30;137096;-41
2022/03/15 12:08:11;;;;;;;;;;;11.50;99.90;;;10.27;86.11;101973.69;2568669;30;136778;-41
2022/03/15 12:10:29;;;;;;;;;;;11.50;99.90;;;10.22;83.94;101963.31;2566503;30;136986;-41
2022/03/15 12:13:17;;;;;;;;;;;11.50;99.90;;;10.28;84.78;101958.16;2569524;30;138322;-41
2022/03/15 12:15:48;;;;;;;;;;;11.50;99.90;;;10.36;85.70;101956.22;2568735;30;137081;-41
2022/03/15 12:21:07;;;;;;;;;;;11.60;99.90;;;10.49;85.33;101939.25;2567933;30;137258;-41
2022/03/15 12:23:46;;;;;;;;;;;11.60;99.90;;;10.51;84.43;101936.34;2568234;30;138158;-41
2022/03/15 12:26:26;;;;;;;;;;;11.70;99.90;;;10.56;84.79;101935.78;2568848;30;137346;-41
2022/03/15 12:28:57;;;;;;;;;;;11.80;99.90;;;10.61;84.26;101922.44;2568581;30;137491;-41
2022/03/15 12:31:42;;;;;;;;;;;11.80;99.90;;;10.67;84.09;101920.84;2567098;30;136775;-42
2022/03/15 12:34:16;;;;;;;;;;;11.80;99.90;;;10.73;84.01;101914.63;2568177;30;137741;-41
2022/03/15 12:36:47;;;;;;;;;;;11.90;99.90;;;10.70;84.39;101909.53;2568654;30;137085;-41
2022/03/15 12:39:21;;;;;;;;;;;11.90;99.90;;;10.73;83.75;101912.75;2566704;30;137739;-41
2022/03/15 12:42:04;;;;;;;;;;;11.90;99.90;;;10.78;83.59;101912.19;2567692;30;137902;-41
2022/03/15 12:44:44;;;;;;;;;;;12.00;99.90;;;10.74;84.86;101911.72;2567094;30;137511;-41
2022/03/15 12:47:15;;;;;;;;;;;12.00;99.90;;;10.81;83.69;101908.22;2567663;30;136689;-41
2022/03/15 12:50:04;;;;;;;;;;;12.00;99.90;;;10.88;83.76;101911.94;2567904;30;138432;-41
2022/03/15 12:53:01;;;;;;;;;;;12.10;99.90;;;10.90;80.83;101910.69;2567990;30;136893;-41
2022/03/15 12:55:34;;;;;;;;;;;12.10;99.90;;;10.85;80.41;101904.94;2565821;30;139426;-41